sensor_id;sensor_type;location;lat;lon;timestamp;pressure;altitude;pressure_sealevel;temperature;humidity
48624;BME280;34422;45.802;16.114;2023-05-07T00:00:36;100215.00;;;18.32;100.00
48624;BME280;34422;45.802;16.114;2023-05-07T00:03:03;100218.25;;;18.24;100.00
48624;BME280;34422;45.802;16.114;2023-05-07T00:05:30;100221.56;;;18.26;100.00
48624;BME280;34422;45.802;16.114;2023-05-07T00:07:56;100215.81;;;18.27;100.00
48624;BME280;34422;45.802;16.114;2023-05-07T00:10:23;100214.94;;;18.22;100.00
48624;BME280;34422;45.802;16.114;2023-05-07T00:12:50;100218.25;;;18.24;100.00
48624;BME280;34422;45.802;16.114;2023-05-07T00:15:17;100225.91;;;18.22;100.00
48624;BME280;34422;45.802;16.114;2023-05-07T00:17:43;100225.06;;;18.16;100.00
48624;BME280;34422;45.802;16.114;2023-05-07T00:20:11;100224.72;;;18.07;100.00
48624;BME280;34422;45.802;16.114;2023-05-07T00:22:38;100219.47;;;18.01;100.00
48624;BME280;34422;45.802;16.114;2023-05-07T00:25:05;100221.97;;;18.07;100.00
48624;BME280;34422;45.802;16.114;2023-05-07T00:27:32;100218.78;;;17.84;100.00
48624;BME280;34422;45.802;16.114;2023-05-07T00:29:58;100220.19;;;17.91;100.00
48624;BME280;34422;45.802;16.114;2023-05-07T00:32:25;100214.97;;;17.85;100.00
48624;BME280;34422;45.802;16.114;2023-05-07T00:34:52;100216.00;;;17.79;100.00
48624;BME280;34422;45.802;16.114;2023-05-07T00:37:19;100228.84;;;17.78;100.00
48624;BME280;34422;45.802;16.114;2023-05-07T00:39:45;100214.91;;;17.74;100.00
48624;BME280;34422;45.802;16.114;2023-05-07T00:42:12;100215.28;;;17.61;100.00
48624;BME280;34422;45.802;16.114;2023-05-07T00:44:39;100216.13;;;17.62;100.00
48624;BME280;34422;45.802;16.114;2023-05-07T00:47:06;100218.53;;;17.58;100.00
48624;BME280;34422;45.802;16.114;2023-05-07T00:49:39;100219.41;;;17.37;100.00
48624;BME280;34422;45.802;16.114;2023-05-07T00:52:07;100214.56;;;17.17;100.00
48624;BME280;34422;45.802;16.114;2023-05-07T00:54:36;100213.41;;;17.08;100.00
48624;BME280;34422;45.802;16.114;2023-05-07T00:57:03;100217.06;;;16.97;100.00
48624;BME280;34422;45.802;16.114;2023-05-07T00:59:31;100218.44;;;16.94;100.00
48624;BME280;34422;45.802;16.114;2023-05-07T01:01:59;100221.66;;;16.91;100.00
48624;BME280;34422;45.802;16.114;2023-05-07T01:04:26;100223.00;;;16.89;100.00
48624;BME280;34422;45.802;16.114;2023-05-07T01:06:57;100216.53;;;16.56;100.00
48624;BME280;34422;45.802;16.114;2023-05-07T01:09:24;100219.13;;;16.46;100.00
48624;BME280;34422;45.802;16.114;2023-05-07T01:11:52;100214.66;;;16.40;100.00
48624;BME280;34422;45.802;16.114;2023-05-07T01:14:19;100213.59;;;16.41;100.00
48624;BME280;34422;45.802;16.114;2023-05-07T01:16:50;100214.63;;;16.35;100.00
48624;BME280;34422;45.802;16.114;2023-05-07T01:19:18;100209.91;;;16.30;100.00
48624;BME280;34422;45.802;16.114;2023-05-07T01:21:48;100219.94;;;16.25;100.00
48624;BME280;34422;45.802;16.114;2023-05-07T01:24:16;100221.19;;;16.17;100.00
48624;BME280;34422;45.802;16.114;2023-05-07T01:26:44;100223.50;;;16.09;100.00
48624;BME280;34422;45.802;16.114;2023-05-07T01:29:11;100228.31;;;16.02;100.00
48624;BME280;34422;45.802;16.114;2023-05-07T01:31:40;100228.63;;;15.88;100.00
48624;BME280;34422;45.802;16.114;2023-05-07T01:34:09;100230.47;;;15.83;100.00
48624;BME280;34422;45.802;16.114;2023-05-07T01:36:39;100229.78;;;15.76;100.00
48624;BME280;34422;45.802;16.114;2023-05-07T01:39:11;100234.34;;;15.70;100.00
48624;BME280;34422;45.802;16.114;2023-05-07T01:41:39;100237.63;;;15.72;100.00
48624;BME280;34422;45.802;16.114;2023-05-07T01:44:06;100238.06;;;15.64;100.00
48624;BME280;34422;45.802;16.114;2023-05-07T01:46:33;100233.09;;;15.61;100.00
48624;BME280;34422;45.802;16.114;2023-05-07T01:49:00;100235.75;;;15.56;100.00
48624;BME280;34422;45.802;16.114;2023-05-07T01:51:27;100237.75;;;15.49;100.00
48624;BME280;34422;45.802;16.114;2023-05-07T01:53:54;100237.00;;;15.37;100.00
48624;BME280;34422;45.802;16.114;2023-05-07T01:56:21;100238.66;;;15.38;100.00
48624;BME280;34422;45.802;16.114;2023-05-07T01:58:48;100232.53;;;15.31;100.00
48624;BME280;34422;45.802;16.114;2023-05-07T02:01:17;100229.94;;;15.24;100.00
48624;BME280;34422;45.802;16.114;2023-05-07T02:03:45;100231.72;;;15.18;100.00
48624;BME280;34422;45.802;16.114;2023-05-07T02:06:11;100234.44;;;15.18;100.00
48624;BME280;34422;45.802;16.114;2023-05-07T02:08:38;100243.13;;;15.15;100.00
48624;BME280;34422;45.802;16.114;2023-05-07T02:11:05;100238.75;;;15.14;100.00
48624;BME280;34422;45.802;16.114;2023-05-07T02:13:33;100233.59;;;15.01;100.00
48624;BME280;34422;45.802;16.114;2023-05-07T02:16:03;100237.88;;;14.97;100.00
48624;BME280;34422;45.802;16.114;2023-05-07T02:18:30;100230.66;;;14.91;100.00
48624;BME280;34422;45.802;16.114;2023-05-07T02:20:58;100235.53;;;14.89;100.00
48624;BME280;34422;45.802;16.114;2023-05-07T02:23:24;100242.75;;;14.83;100.00
48624;BME280;34422;45.802;16.114;2023-05-07T02:25:51;100227.03;;;14.74;100.00
48624;BME280;34422;45.802;16.114;2023-05-07T02:28:18;100240.53;;;14.69;100.00
48624;BME280;34422;45.802;16.114;2023-05-07T02:30:45;100230.59;;;14.63;100.00
48624;BME280;34422;45.802;16.114;2023-05-07T02:33:11;100228.63;;;14.58;100.00
48624;BME280;34422;45.802;16.114;2023-05-07T02:35:40;100230.50;;;14.57;100.00
48624;BME280;34422;45.802;16.114;2023-05-07T02:38:07;100231.81;;;14.55;100.00
48624;BME280;34422;45.802;16.114;2023-05-07T02:40:33;100223.28;;;14.51;100.00
48624;BME280;34422;45.802;16.114;2023-05-07T02:43:03;100234.19;;;14.51;100.00
48624;BME280;34422;45.802;16.114;2023-05-07T02:45:32;100227.06;;;14.50;100.00
48624;BME280;34422;45.802;16.114;2023-05-07T02:47:59;100223.78;;;14.48;100.00
48624;BME280;34422;45.802;16.114;2023-05-07T02:50:26;100229.69;;;14.45;100.00
48624;BME280;34422;45.802;16.114;2023-05-07T02:52:53;100218.69;;;14.40;100.00
48624;BME280;34422;45.802;16.114;2023-05-07T02:55:23;100223.66;;;14.43;100.00
48624;BME280;34422;45.802;16.114;2023-05-07T02:57:50;100220.19;;;14.36;100.00
48624;BME280;34422;45.802;16.114;2023-05-07T03:00:18;100209.09;;;14.26;100.00
48624;BME280;34422;45.802;16.114;2023-05-07T03:02:45;100215.50;;;14.20;100.00
48624;BME280;34422;45.802;16.114;2023-05-07T03:05:12;100218.69;;;14.17;100.00
48624;BME280;34422;45.802;16.114;2023-05-07T03:07:40;100224.00;;;14.12;100.00
48624;BME280;34422;45.802;16.114;2023-05-07T03:10:12;100219.53;;;14.06;100.00
48624;BME280;34422;45.802;16.114;2023-05-07T03:12:39;100226.63;;;14.07;100.00
48624;BME280;34422;45.802;16.114;2023-05-07T03:15:06;100237.97;;;14.04;100.00
48624;BME280;34422;45.802;16.114;2023-05-07T03:17:33;100235.72;;;14.01;100.00
48624;BME280;34422;45.802;16.114;2023-05-07T03:20:00;100219.16;;;13.91;100.00
48624;BME280;34422;45.802;16.114;2023-05-07T03:22:26;100233.34;;;13.93;100.00
48624;BME280;34422;45.802;16.114;2023-05-07T03:24:53;100234.41;;;13.92;100.00
48624;BME280;34422;45.802;16.114;2023-05-07T03:27:20;100236.63;;;13.83;100.00
48624;BME280;34422;45.802;16.114;2023-05-07T03:29:47;100250.47;;;13.81;100.00
48624;BME280;34422;45.802;16.114;2023-05-07T03:32:14;100262.16;;;13.82;100.00
48624;BME280;34422;45.802;16.114;2023-05-07T03:34:42;100256.84;;;13.75;100.00
48624;BME280;34422;45.802;16.114;2023-05-07T03:37:08;100268.34;;;13.77;100.00
48624;BME280;34422;45.802;16.114;2023-05-07T03:39:35;100266.06;;;13.74;100.00
48624;BME280;34422;45.802;16.114;2023-05-07T03:42:02;100256.03;;;13.75;100.00
48624;BME280;34422;45.802;16.114;2023-05-07T03:44:29;100257.78;;;13.69;100.00
48624;BME280;34422;45.802;16.114;2023-05-07T03:47:14;100258.25;;;13.66;100.00
48624;BME280;34422;45.802;16.114;2023-05-07T03:49:47;100259.81;;;13.74;100.00
48624;BME280;34422;45.802;16.114;2023-05-07T03:52:15;100258.25;;;13.66;100.00
48624;BME280;34422;45.802;16.114;2023-05-07T03:54:42;100243.31;;;13.57;100.00
48624;BME280;34422;45.802;16.114;2023-05-07T03:57:09;100270.31;;;13.70;100.00
48624;BME280;34422;45.802;16.114;2023-05-07T03:59:38;100275.19;;;13.80;100.00
48624;BME280;34422;45.802;16.114;2023-05-07T04:02:05;100272.13;;;13.88;100.00
48624;BME280;34422;45.802;16.114;2023-05-07T04:04:31;100262.44;;;13.92;100.00
48624;BME280;34422;45.802;16.114;2023-05-07T04:06:59;100274.88;;;14.00;100.00
48624;BME280;34422;45.802;16.114;2023-05-07T04:09:27;100270.03;;;14.02;100.00
48624;BME280;34422;45.802;16.114;2023-05-07T04:11:54;100271.22;;;14.06;100.00
48624;BME280;34422;45.802;16.114;2023-05-07T04:14:20;100267.16;;;14.08;100.00
48624;BME280;34422;45.802;16.114;2023-05-07T04:16:47;100270.84;;;14.14;100.00
48624;BME280;34422;45.802;16.114;2023-05-07T04:19:14;100273.34;;;14.15;100.00
48624;BME280;34422;45.802;16.114;2023-05-07T04:21:43;100280.81;;;14.20;100.00
48624;BME280;34422;45.802;16.114;2023-05-07T04:24:09;100276.44;;;14.31;100.00
48624;BME280;34422;45.802;16.114;2023-05-07T04:26:36;100276.28;;;14.37;100.00
48624;BME280;34422;45.802;16.114;2023-05-07T04:29:03;100266.47;;;14.36;100.00
48624;BME280;34422;45.802;16.114;2023-05-07T04:31:30;100285.81;;;14.46;100.00
48624;BME280;34422;45.802;16.114;2023-05-07T04:33:57;100278.34;;;14.53;100.00
48624;BME280;34422;45.802;16.114;2023-05-07T04:36:25;100282.00;;;14.59;100.00
48624;BME280;34422;45.802;16.114;2023-05-07T04:38:54;100283.66;;;14.72;100.00
48624;BME280;34422;45.802;16.114;2023-05-07T04:41:21;100286.00;;;14.80;100.00
48624;BME280;34422;45.802;16.114;2023-05-07T04:43:47;100273.44;;;14.79;100.00
48624;BME280;34422;45.802;16.114;2023-05-07T04:46:14;100295.22;;;15.02;100.00
48624;BME280;34422;45.802;16.114;2023-05-07T04:48:41;100297.41;;;15.17;100.00
48624;BME280;34422;45.802;16.114;2023-05-07T04:51:08;100298.56;;;15.21;100.00
48624;BME280;34422;45.802;16.114;2023-05-07T04:53:34;100308.56;;;15.44;100.00
48624;BME280;34422;45.802;16.114;2023-05-07T04:56:01;100318.22;;;15.63;100.00
48624;BME280;34422;45.802;16.114;2023-05-07T04:58:28;100325.88;;;15.78;100.00
48624;BME280;34422;45.802;16.114;2023-05-07T05:00:58;100324.72;;;15.90;100.00
48624;BME280;34422;45.802;16.114;2023-05-07T05:03:25;100313.31;;;15.93;100.00
48624;BME280;34422;45.802;16.114;2023-05-07T05:05:52;100322.53;;;16.21;100.00
48624;BME280;34422;45.802;16.114;2023-05-07T05:08:23;100326.09;;;16.38;100.00
48624;BME280;34422;45.802;16.114;2023-05-07T05:10:50;100331.03;;;16.58;100.00
48624;BME280;34422;45.802;16.114;2023-05-07T05:13:17;100319.09;;;16.81;100.00
48624;BME280;34422;45.802;16.114;2023-05-07T05:15:44;100321.03;;;17.02;100.00
48624;BME280;34422;45.802;16.114;2023-05-07T05:18:11;100320.75;;;17.25;100.00
48624;BME280;34422;45.802;16.114;2023-05-07T05:20:37;100316.16;;;17.53;100.00
48624;BME280;34422;45.802;16.114;2023-05-07T05:23:04;100320.63;;;17.86;100.00
48624;BME280;34422;45.802;16.114;2023-05-07T05:25:36;100321.34;;;18.03;100.00
48624;BME280;34422;45.802;16.114;2023-05-07T05:28:05;100327.25;;;18.22;100.00
48624;BME280;34422;45.802;16.114;2023-05-07T05:30:39;100325.00;;;18.14;100.00
48624;BME280;34422;45.802;16.114;2023-05-07T05:33:06;100320.16;;;18.26;100.00
48624;BME280;34422;45.802;16.114;2023-05-07T05:35:35;100318.84;;;18.65;100.00
48624;BME280;34422;45.802;16.114;2023-05-07T05:38:02;100321.72;;;18.86;100.00
48624;BME280;34422;45.802;16.114;2023-05-07T05:40:29;100308.00;;;18.86;100.00
48624;BME280;34422;45.802;16.114;2023-05-07T05:42:57;100320.03;;;19.47;100.00
48624;BME280;34422;45.802;16.114;2023-05-07T05:45:26;100322.63;;;19.89;100.00
48624;BME280;34422;45.802;16.114;2023-05-07T05:47:53;100327.31;;;19.94;100.00
48624;BME280;34422;45.802;16.114;2023-05-07T05:50:27;100323.75;;;20.23;100.00
48624;BME280;34422;45.802;16.114;2023-05-07T05:53:00;100318.75;;;19.70;100.00
48624;BME280;34422;45.802;16.114;2023-05-07T05:55:26;100328.16;;;20.40;100.00
48624;BME280;34422;45.802;16.114;2023-05-07T05:57:53;100326.22;;;20.76;100.00
48624;BME280;34422;45.802;16.114;2023-05-07T06:00:20;100334.22;;;20.57;100.00
48624;BME280;34422;45.802;16.114;2023-05-07T06:02:51;100336.44;;;20.45;100.00
48624;BME280;34422;45.802;16.114;2023-05-07T06:05:20;100343.59;;;20.36;100.00
48624;BME280;34422;45.802;16.114;2023-05-07T06:07:56;100331.19;;;20.58;100.00
48624;BME280;34422;45.802;16.114;2023-05-07T06:10:45;100336.94;;;20.32;100.00
48624;BME280;34422;45.802;16.114;2023-05-07T06:13:25;100329.78;;;20.76;100.00
48624;BME280;34422;45.802;16.114;2023-05-07T06:15:54;100339.97;;;21.55;100.00
48624;BME280;34422;45.802;16.114;2023-05-07T06:18:21;100330.09;;;21.49;100.00
48624;BME280;34422;45.802;16.114;2023-05-07T06:21:13;100328.81;;;22.54;100.00
48624;BME280;34422;45.802;16.114;2023-05-07T06:24:16;100325.25;;;22.82;100.00
48624;BME280;34422;45.802;16.114;2023-05-07T06:27:01;100298.31;;;22.69;100.00
48624;BME280;34422;45.802;16.114;2023-05-07T06:29:35;100338.28;;;22.43;100.00
48624;BME280;34422;45.802;16.114;2023-05-07T06:32:11;100325.66;;;21.53;100.00
48624;BME280;34422;45.802;16.114;2023-05-07T06:34:40;100304.88;;;22.15;100.00
48624;BME280;34422;45.802;16.114;2023-05-07T06:37:07;100323.75;;;21.49;100.00
48624;BME280;34422;45.802;16.114;2023-05-07T06:39:36;100326.94;;;22.15;99.27
48624;BME280;34422;45.802;16.114;2023-05-07T06:42:04;100322.00;;;22.12;100.00
48624;BME280;34422;45.802;16.114;2023-05-07T06:44:37;100325.25;;;23.06;96.06
48624;BME280;34422;45.802;16.114;2023-05-07T06:47:10;100324.78;;;23.23;88.44
48624;BME280;34422;45.802;16.114;2023-05-07T06:49:37;100323.53;;;23.34;89.50
48624;BME280;34422;45.802;16.114;2023-05-07T06:52:09;100328.81;;;22.54;98.55
48624;BME280;34422;45.802;16.114;2023-05-07T06:54:46;100325.09;;;22.68;100.00
48624;BME280;34422;45.802;16.114;2023-05-07T06:57:16;100310.41;;;22.78;95.07
48624;BME280;34422;45.802;16.114;2023-05-07T06:59:43;100332.25;;;23.41;92.49
48624;BME280;34422;45.802;16.114;2023-05-07T07:02:13;100331.09;;;24.87;76.79
48624;BME280;34422;45.802;16.114;2023-05-07T07:04:42;100325.91;;;24.02;86.11
48624;BME280;34422;45.802;16.114;2023-05-07T07:07:09;100333.00;;;24.08;79.43
48624;BME280;34422;45.802;16.114;2023-05-07T07:09:44;100331.44;;;25.40;70.27
48624;BME280;34422;45.802;16.114;2023-05-07T07:12:17;100323.44;;;24.00;79.53
48624;BME280;34422;45.802;16.114;2023-05-07T07:14:43;100314.66;;;23.37;85.61
48624;BME280;34422;45.802;16.114;2023-05-07T07:17:17;100318.34;;;24.07;76.50
48624;BME280;34422;45.802;16.114;2023-05-07T07:19:51;100321.44;;;23.87;75.47
48624;BME280;34422;45.802;16.114;2023-05-07T07:22:21;100317.75;;;25.71;62.76
48624;BME280;34422;45.802;16.114;2023-05-07T07:25:05;100329.97;;;25.43;61.05
48624;BME280;34422;45.802;16.114;2023-05-07T07:27:46;100296.38;;;26.30;53.13
48624;BME280;34422;45.802;16.114;2023-05-07T07:30:13;100303.38;;;25.83;57.80
48624;BME280;34422;45.802;16.114;2023-05-07T07:32:39;100325.72;;;25.87;59.06
48624;BME280;34422;45.802;16.114;2023-05-07T07:35:07;100322.06;;;25.50;63.31
48624;BME280;34422;45.802;16.114;2023-05-07T07:37:51;100317.00;;;25.79;61.32
48624;BME280;34422;45.802;16.114;2023-05-07T07:40:18;100311.91;;;27.33;55.61
48624;BME280;34422;45.802;16.114;2023-05-07T07:42:45;100323.44;;;27.57;54.07
48624;BME280;34422;45.802;16.114;2023-05-07T07:45:15;100320.22;;;28.24;49.12
48624;BME280;34422;45.802;16.114;2023-05-07T07:47:42;100320.91;;;27.30;50.65
48624;BME280;34422;45.802;16.114;2023-05-07T07:50:09;100327.47;;;26.72;53.11
48624;BME280;34422;45.802;16.114;2023-05-07T07:52:39;100317.88;;;25.66;55.32
48624;BME280;34422;45.802;16.114;2023-05-07T07:55:08;100327.19;;;27.04;52.06
48624;BME280;34422;45.802;16.114;2023-05-07T07:57:57;100337.44;;;26.73;52.88
48624;BME280;34422;45.802;16.114;2023-05-07T08:00:47;100316.34;;;26.94;53.74
48624;BME280;34422;45.802;16.114;2023-05-07T08:03:59;100318.84;;;26.73;53.31
48624;BME280;34422;45.802;16.114;2023-05-07T08:06:57;100311.00;;;26.22;54.08
48624;BME280;34422;45.802;16.114;2023-05-07T08:09:24;100318.75;;;27.27;54.00
48624;BME280;34422;45.802;16.114;2023-05-07T08:12:24;100333.34;;;27.41;47.93
48624;BME280;34422;45.802;16.114;2023-05-07T08:14:56;100326.97;;;27.49;47.93
48624;BME280;34422;45.802;16.114;2023-05-07T08:17:23;100331.63;;;28.48;45.42
48624;BME280;34422;45.802;16.114;2023-05-07T08:20:04;100337.00;;;28.62;44.19
48624;BME280;34422;45.802;16.114;2023-05-07T08:22:31;100336.34;;;27.62;47.32
48624;BME280;34422;45.802;16.114;2023-05-07T08:24:58;100341.28;;;27.82;47.08
48624;BME280;34422;45.802;16.114;2023-05-07T08:27:37;100332.75;;;28.56;44.41
48624;BME280;34422;45.802;16.114;2023-05-07T08:30:28;100327.13;;;28.73;43.79
48624;BME280;34422;45.802;16.114;2023-05-07T08:33:37;100319.34;;;27.89;44.66
48624;BME280;34422;45.802;16.114;2023-05-07T08:36:18;100337.03;;;27.19;48.08
48624;BME280;34422;45.802;16.114;2023-05-07T08:38:45;100330.56;;;27.41;48.92
48624;BME280;34422;45.802;16.114;2023-05-07T08:41:19;100314.06;;;26.96;47.34
48624;BME280;34422;45.802;16.114;2023-05-07T08:44:06;100335.81;;;27.51;45.98
48624;BME280;34422;45.802;16.114;2023-05-07T08:47:06;100335.78;;;26.94;48.13
48624;BME280;34422;45.802;16.114;2023-05-07T08:49:34;100319.06;;;28.25;43.89
48624;BME280;34422;45.802;16.114;2023-05-07T08:52:01;100336.88;;;28.41;43.69
48624;BME280;34422;45.802;16.114;2023-05-07T08:54:31;100315.25;;;28.47;42.86
48624;BME280;34422;45.802;16.114;2023-05-07T08:57:01;100329.72;;;28.87;41.70
48624;BME280;34422;45.802;16.114;2023-05-07T08:59:38;100325.38;;;28.69;42.13
48624;BME280;34422;45.802;16.114;2023-05-07T09:02:28;100334.31;;;29.59;40.51
48624;BME280;34422;45.802;16.114;2023-05-07T09:04:55;100321.97;;;27.11;47.26
48624;BME280;34422;45.802;16.114;2023-05-07T09:07:49;100322.66;;;26.86;47.31
48624;BME280;34422;45.802;16.114;2023-05-07T09:10:20;100326.69;;;27.02;47.93
48624;BME280;34422;45.802;16.114;2023-05-07T09:13:18;100323.44;;;27.91;45.26
48624;BME280;34422;45.802;16.114;2023-05-07T09:15:48;100292.22;;;26.72;48.08
48624;BME280;34422;45.802;16.114;2023-05-07T09:18:49;100297.72;;;27.51;46.29
48624;BME280;34422;45.802;16.114;2023-05-07T09:21:18;100303.50;;;27.72;45.62
48624;BME280;34422;45.802;16.114;2023-05-07T09:23:44;100321.81;;;26.77;48.13
48624;BME280;34422;45.802;16.114;2023-05-07T09:26:11;100301.91;;;26.52;52.95
48624;BME280;34422;45.802;16.114;2023-05-07T09:28:39;100299.72;;;27.03;48.91
48624;BME280;34422;45.802;16.114;2023-05-07T09:31:09;100316.97;;;26.60;49.55
48624;BME280;34422;45.802;16.114;2023-05-07T09:33:39;100318.06;;;26.06;53.07
48624;BME280;34422;45.802;16.114;2023-05-07T09:36:08;100317.78;;;26.16;55.08
48624;BME280;34422;45.802;16.114;2023-05-07T09:38:37;100302.50;;;27.03;49.99
48624;BME280;34422;45.802;16.114;2023-05-07T09:41:09;100319.31;;;27.06;50.41
48624;BME280;34422;45.802;16.114;2023-05-07T09:51:56;100306.50;;;26.88;50.38
48624;BME280;34422;45.802;16.114;2023-05-07T10:05:33;100293.63;;;27.49;49.01
48624;BME280;34422;45.802;16.114;2023-05-07T10:08:17;100285.56;;;26.82;51.58
48624;BME280;34422;45.802;16.114;2023-05-07T10:11:52;100288.94;;;27.01;50.30
48624;BME280;34422;45.802;16.114;2023-05-07T10:15:06;100287.78;;;26.63;50.44
48624;BME280;34422;45.802;16.114;2023-05-07T10:17:50;100265.56;;;26.63;50.61
48624;BME280;34422;45.802;16.114;2023-05-07T10:20:27;100293.16;;;26.68;52.43
48624;BME280;34422;45.802;16.114;2023-05-07T10:23:15;100281.69;;;26.07;53.40
48624;BME280;34422;45.802;16.114;2023-05-07T10:25:50;100271.41;;;26.08;52.19
48624;BME280;34422;45.802;16.114;2023-05-07T10:29:15;100283.25;;;25.77;53.29
48624;BME280;34422;45.802;16.114;2023-05-07T10:36:23;100269.25;;;26.49;50.39
48624;BME280;34422;45.802;16.114;2023-05-07T10:39:05;100277.97;;;26.96;51.38
48624;BME280;34422;45.802;16.114;2023-05-07T10:41:51;100274.81;;;26.89;48.92
48624;BME280;34422;45.802;16.114;2023-05-07T10:44:28;100282.72;;;26.65;49.82
48624;BME280;34422;45.802;16.114;2023-05-07T10:47:19;100275.38;;;27.00;50.11
48624;BME280;34422;45.802;16.114;2023-05-07T10:53:21;100241.50;;;27.46;46.98
48624;BME280;34422;45.802;16.114;2023-05-07T11:05:44;100265.47;;;26.45;49.87
48624;BME280;34422;45.802;16.114;2023-05-07T11:08:26;100263.72;;;26.89;50.73
48624;BME280;34422;45.802;16.114;2023-05-07T11:17:12;100254.66;;;27.14;48.15
48624;BME280;34422;45.802;16.114;2023-05-07T11:19:53;100256.75;;;27.09;48.68
48624;BME280;34422;45.802;16.114;2023-05-07T11:25:00;100259.09;;;27.15;46.16
48624;BME280;34422;45.802;16.114;2023-05-07T11:27:30;100253.75;;;27.62;44.25
48624;BME280;34422;45.802;16.114;2023-05-07T11:29:57;100255.38;;;27.46;44.53
48624;BME280;34422;45.802;16.114;2023-05-07T11:32:29;100254.75;;;27.66;47.42
48624;BME280;34422;45.802;16.114;2023-05-07T11:35:00;100251.81;;;27.71;45.90
48624;BME280;34422;45.802;16.114;2023-05-07T11:37:27;100251.13;;;27.40;45.53
48624;BME280;34422;45.802;16.114;2023-05-07T11:40:06;100249.53;;;27.56;45.04
48624;BME280;34422;45.802;16.114;2023-05-07T11:42:37;100243.50;;;26.97;45.84
48624;BME280;34422;45.802;16.114;2023-05-07T11:45:08;100257.13;;;26.76;46.02
48624;BME280;34422;45.802;16.114;2023-05-07T11:47:35;100250.72;;;26.67;46.73
48624;BME280;34422;45.802;16.114;2023-05-07T11:50:06;100254.63;;;26.97;45.88
48624;BME280;34422;45.802;16.114;2023-05-07T11:52:37;100249.06;;;26.97;44.64
48624;BME280;34422;45.802;16.114;2023-05-07T11:55:06;100250.56;;;27.12;44.78
48624;BME280;34422;45.802;16.114;2023-05-07T11:57:33;100247.19;;;27.41;44.04
48624;BME280;34422;45.802;16.114;2023-05-07T12:00:02;100255.25;;;27.85;42.76
48624;BME280;34422;45.802;16.114;2023-05-07T12:02:30;100242.81;;;27.83;41.99
48624;BME280;34422;45.802;16.114;2023-05-07T12:05:00;100241.81;;;27.96;43.71
48624;BME280;34422;45.802;16.114;2023-05-07T12:07:27;100249.00;;;28.14;43.26
48624;BME280;34422;45.802;16.114;2023-05-07T12:09:53;100236.13;;;27.67;46.15
48624;BME280;34422;45.802;16.114;2023-05-07T12:12:20;100242.50;;;27.84;42.36
48624;BME280;34422;45.802;16.114;2023-05-07T12:14:48;100239.84;;;28.14;41.75
48624;BME280;34422;45.802;16.114;2023-05-07T12:17:15;100233.13;;;28.15;39.09
48624;BME280;34422;45.802;16.114;2023-05-07T12:19:43;100239.38;;;27.94;40.03
48624;BME280;34422;45.802;16.114;2023-05-07T12:22:11;100236.72;;;28.07;41.86
48624;BME280;34422;45.802;16.114;2023-05-07T12:24:48;100239.88;;;27.88;41.52
48624;BME280;34422;45.802;16.114;2023-05-07T12:27:16;100234.28;;;28.22;41.37
48624;BME280;34422;45.802;16.114;2023-05-07T12:29:45;100232.00;;;27.99;39.56
48624;BME280;34422;45.802;16.114;2023-05-07T12:32:14;100229.22;;;27.99;41.74
48624;BME280;34422;45.802;16.114;2023-05-07T12:34:42;100215.84;;;27.66;42.07
48624;BME280;34422;45.802;16.114;2023-05-07T12:37:09;100225.31;;;28.00;43.01
48624;BME280;34422;45.802;16.114;2023-05-07T12:39:36;100216.47;;;27.98;44.55
48624;BME280;34422;45.802;16.114;2023-05-07T12:42:03;100217.09;;;28.29;43.95
48624;BME280;34422;45.802;16.114;2023-05-07T12:44:31;100204.03;;;28.59;43.19
48624;BME280;34422;45.802;16.114;2023-05-07T12:47:01;100217.75;;;28.26;40.99
48624;BME280;34422;45.802;16.114;2023-05-07T12:49:28;100207.78;;;27.99;41.09
48624;BME280;34422;45.802;16.114;2023-05-07T12:51:55;100208.78;;;27.94;39.85
48624;BME280;34422;45.802;16.114;2023-05-07T12:54:29;100208.31;;;27.75;42.68
48624;BME280;34422;45.802;16.114;2023-05-07T12:57:08;100199.50;;;27.73;41.41
48624;BME280;34422;45.802;16.114;2023-05-07T12:59:39;100196.19;;;27.28;41.60
48624;BME280;34422;45.802;16.114;2023-05-07T13:02:07;100195.25;;;27.67;42.52
48624;BME280;34422;45.802;16.114;2023-05-07T13:04:35;100193.25;;;27.76;44.17
48624;BME280;34422;45.802;16.114;2023-05-07T13:07:02;100183.78;;;27.43;42.89
48624;BME280;34422;45.802;16.114;2023-05-07T13:09:29;100189.97;;;27.91;42.31
48624;BME280;34422;45.802;16.114;2023-05-07T13:11:56;100174.56;;;28.03;41.54
48624;BME280;34422;45.802;16.114;2023-05-07T13:14:22;100182.31;;;27.63;43.47
48624;BME280;34422;45.802;16.114;2023-05-07T13:16:49;100181.78;;;27.95;41.29
48624;BME280;34422;45.802;16.114;2023-05-07T13:19:16;100169.88;;;27.77;41.55
48624;BME280;34422;45.802;16.114;2023-05-07T13:21:43;100181.41;;;28.14;43.64
48624;BME280;34422;45.802;16.114;2023-05-07T13:24:10;100170.06;;;27.72;42.69
48624;BME280;34422;45.802;16.114;2023-05-07T13:26:37;100172.81;;;27.81;41.33
48624;BME280;34422;45.802;16.114;2023-05-07T13:29:07;100162.94;;;28.09;43.70
48624;BME280;34422;45.802;16.114;2023-05-07T13:31:33;100177.50;;;28.15;41.66
48624;BME280;34422;45.802;16.114;2023-05-07T13:34:03;100163.09;;;28.13;41.32
48624;BME280;34422;45.802;16.114;2023-05-07T13:36:30;100162.28;;;28.04;41.02
48624;BME280;34422;45.802;16.114;2023-05-07T13:39:10;100164.28;;;27.94;39.73
48624;BME280;34422;45.802;16.114;2023-05-07T13:41:53;100161.34;;;28.00;40.83